createdAt,value
2018-04-10T00:01:35.631Z,34.00
2018-04-10T00:04:03.111Z,31.10
2018-04-10T00:06:30.569Z,29.60
2018-04-10T00:08:58.064Z,28.40
2018-04-10T00:11:25.581Z,29.70
2018-04-10T00:13:53.032Z,28.33
2018-04-10T00:16:20.502Z,28.83
2018-04-10T00:18:47.999Z,29.53
2018-04-10T00:21:15.496Z,30.67
2018-04-10T00:23:42.957Z,28.57
2018-04-10T00:26:10.416Z,30.30
2018-04-10T00:28:37.919Z,28.30
2018-04-10T00:31:05.392Z,31.60
2018-04-10T00:33:32.850Z,34.80
2018-04-10T00:36:00.335Z,28.90
2018-04-10T00:38:27.829Z,36.27
2018-04-10T00:40:55.288Z,32.73
2018-04-10T00:43:22.764Z,36.93
2018-04-10T00:45:50.340Z,35.10
2018-04-10T00:48:17.792Z,32.20
2018-04-10T00:50:45.272Z,36.10
2018-04-10T00:53:24.540Z,37.80
2018-04-10T00:55:52.017Z,40.20
2018-04-10T00:58:19.482Z,33.00
2018-04-10T01:00:47.000Z,35.90
2018-04-10T01:03:14.456Z,43.53
2018-04-10T01:05:41.923Z,44.63
2018-04-10T01:08:09.405Z,37.77
2018-04-10T01:10:36.857Z,36.60
2018-04-10T01:13:04.337Z,37.00
2018-04-10T01:15:31.843Z,36.53
2018-04-10T01:17:59.340Z,39.17
2018-04-10T01:20:26.799Z,38.57
2018-04-10T01:22:54.328Z,36.57
2018-04-10T01:25:21.921Z,40.53
2018-04-10T01:27:49.391Z,33.50
2018-04-10T01:30:16.884Z,39.03
2018-04-10T01:32:44.374Z,40.03
2018-04-10T01:35:11.842Z,34.90
2018-04-10T01:37:39.348Z,34.80
2018-04-10T01:40:06.871Z,37.47
2018-04-10T01:42:34.428Z,34.57
2018-04-10T01:45:01.908Z,45.33
2018-04-10T01:47:29.371Z,42.70
2018-04-10T01:49:56.826Z,36.40
2018-04-10T01:52:24.303Z,38.13
2018-04-10T01:54:51.924Z,34.13
2018-04-10T01:57:19.404Z,44.00
2018-04-10T01:59:46.868Z,40.00
2018-04-10T02:02:14.507Z,34.67
2018-04-10T02:04:42.057Z,37.97
2018-04-10T02:07:09.532Z,33.67
2018-04-10T02:09:37.024Z,36.83
2018-04-10T02:12:04.543Z,34.70
2018-04-10T02:14:32.055Z,46.07
2018-04-10T02:16:59.536Z,41.07
2018-04-10T02:19:27.096Z,39.37
2018-04-10T02:21:54.552Z,37.93
2018-04-10T02:24:22.129Z,38.03
2018-04-10T02:26:49.588Z,42.67
2018-04-10T02:29:17.044Z,35.97
2018-04-10T02:31:44.593Z,35.53
2018-04-10T02:34:12.052Z,34.73
2018-04-10T02:36:39.507Z,42.77
2018-04-10T02:39:06.984Z,46.30
2018-04-10T02:41:34.440Z,46.27
2018-04-10T02:44:01.987Z,45.63
2018-04-10T02:46:29.540Z,46.93
2018-04-10T02:48:57.017Z,45.20
2018-04-10T02:51:24.481Z,62.03
2018-04-10T02:53:51.959Z,49.37
2018-04-10T02:56:19.456Z,43.30
2018-04-10T02:58:46.924Z,40.87
2018-04-10T03:01:14.384Z,42.80
2018-04-10T03:03:41.897Z,34.20
2018-04-10T03:06:09.408Z,40.37
2018-04-10T03:08:36.859Z,37.17
2018-04-10T03:11:04.378Z,50.90
2018-04-10T03:13:31.884Z,45.60
2018-04-10T03:15:59.437Z,49.83
2018-04-10T03:18:26.924Z,38.37
2018-04-10T03:20:54.379Z,43.20
2018-04-10T03:23:21.869Z,44.23
2018-04-10T03:25:49.376Z,45.63
2018-04-10T03:28:16.827Z,42.13
2018-04-10T03:30:44.335Z,47.50
2018-04-10T03:33:11.794Z,38.37
2018-04-10T03:35:39.347Z,43.47
2018-04-10T03:38:06.865Z,46.07
2018-04-10T03:40:34.331Z,47.43
2018-04-10T03:43:01.789Z,42.03
2018-04-10T03:45:29.310Z,45.47
2018-04-10T03:47:56.927Z,48.10
2018-04-10T03:50:24.361Z,41.10
2018-04-10T03:52:51.832Z,46.13
2018-04-10T03:55:19.292Z,42.07
2018-04-10T03:57:46.751Z,40.33
2018-04-10T04:00:14.240Z,41.20
2018-04-10T04:02:41.692Z,43.53
2018-04-10T04:05:09.148Z,42.87
2018-04-10T04:07:36.655Z,45.50
2018-04-10T04:12:54.517Z,42.00
2018-04-10T04:15:21.978Z,42.60
2018-04-10T04:17:49.440Z,53.77
2018-04-10T04:20:28.788Z,43.43
2018-04-10T04:22:56.247Z,47.40
2018-04-10T04:25:23.695Z,47.13
2018-04-10T04:27:51.237Z,43.27
2018-04-10T04:30:18.697Z,41.90
2018-04-10T04:32:46.160Z,42.93
2018-04-10T04:35:13.656Z,44.17
2018-04-10T04:37:41.176Z,43.93
2018-04-10T04:40:08.632Z,50.00
2018-04-10T04:42:36.099Z,53.13
2018-04-10T04:45:03.625Z,44.40
2018-04-10T04:47:31.095Z,50.97
2018-04-10T04:50:03.571Z,44.97
2018-04-10T04:52:31.032Z,49.80
2018-04-10T04:54:58.504Z,54.87
2018-04-10T04:57:25.970Z,49.60
2018-04-10T04:59:53.516Z,53.37
2018-04-10T05:02:20.972Z,48.20
2018-04-10T05:04:48.563Z,47.67
2018-04-10T05:07:16.068Z,47.97
2018-04-10T05:09:43.529Z,48.40
2018-04-10T05:12:11.013Z,50.10
2018-04-10T05:14:38.464Z,45.60
2018-04-10T05:17:05.921Z,49.70
2018-04-10T05:19:33.384Z,61.73
2018-04-10T05:22:00.862Z,39.37
2018-04-10T05:24:28.387Z,53.20
2018-04-10T05:26:55.884Z,45.03
2018-04-10T05:29:23.370Z,40.33
2018-04-10T05:31:50.898Z,43.80
2018-04-10T05:34:18.421Z,46.43
2018-04-10T05:36:45.902Z,49.57
2018-04-10T05:39:13.484Z,47.97
2018-04-10T05:41:41.102Z,41.07
2018-04-10T05:44:08.698Z,45.10
2018-04-10T05:46:36.162Z,48.73
2018-04-10T05:49:03.726Z,47.97
2018-04-10T05:51:31.211Z,47.50
2018-04-10T05:53:58.664Z,44.23
2018-04-10T05:56:26.124Z,40.20
2018-04-10T05:58:53.638Z,36.10
2018-04-10T06:01:21.155Z,44.23
2018-04-10T06:03:48.612Z,40.43
2018-04-10T06:06:16.214Z,43.20
2018-04-10T06:08:43.732Z,56.97
2018-04-10T06:11:11.200Z,41.77
2018-04-10T06:13:38.662Z,45.50
2018-04-10T06:16:06.157Z,50.43
2018-04-10T06:18:33.620Z,41.07
2018-04-10T06:21:01.084Z,44.07
2018-04-10T06:23:28.559Z,41.30
2018-04-10T06:25:56.025Z,37.67
2018-04-10T06:28:23.597Z,45.23
2018-04-10T06:30:51.090Z,42.73
2018-04-10T06:33:18.570Z,49.60
2018-04-10T06:35:46.040Z,45.27
2018-04-10T06:38:13.618Z,38.00
2018-04-10T06:40:41.181Z,39.77
2018-04-10T06:43:08.640Z,49.87
2018-04-10T06:45:36.231Z,35.67
2018-04-10T06:48:03.760Z,38.23
2018-04-10T06:50:31.212Z,52.20
2018-04-10T06:52:58.828Z,32.83
2018-04-10T06:55:26.380Z,42.83
2018-04-10T06:57:53.940Z,42.10
2018-04-10T07:00:21.430Z,43.17
2018-04-10T07:02:48.899Z,32.30
2018-04-10T07:05:16.365Z,42.70
2018-04-10T07:07:43.837Z,40.00
2018-04-10T07:10:11.308Z,53.73
2018-04-10T07:12:38.780Z,37.10
2018-04-10T07:15:06.240Z,47.47
2018-04-10T07:17:33.762Z,43.00
2018-04-10T07:20:01.223Z,41.20
2018-04-10T07:22:28.697Z,34.33
2018-04-10T07:24:56.333Z,39.90
2018-04-10T07:27:23.897Z,42.27
2018-04-10T07:29:51.424Z,46.00
2018-04-10T07:32:18.909Z,42.07
2018-04-10T07:34:46.395Z,39.33
2018-04-10T07:37:13.939Z,41.63
2018-04-10T07:39:41.416Z,41.67
2018-04-10T07:42:08.920Z,48.40
2018-04-10T07:44:36.374Z,48.00
2018-04-10T07:47:03.853Z,41.30
2018-04-10T07:49:31.344Z,40.77
2018-04-10T07:51:58.804Z,45.30
2018-04-10T07:54:26.397Z,43.10
2018-04-10T07:56:53.882Z,40.37
2018-04-10T07:59:21.359Z,36.73
2018-04-10T08:01:48.959Z,43.67
2018-04-10T08:04:16.480Z,43.43
2018-04-10T08:06:43.936Z,34.77
2018-04-10T08:09:11.389Z,38.43
2018-04-10T08:11:38.867Z,27.57
2018-04-10T08:14:06.321Z,39.03
2018-04-10T08:16:33.803Z,40.43
2018-04-10T08:19:01.265Z,40.43
2018-04-10T08:21:28.738Z,49.00
2018-04-10T08:23:56.371Z,49.20
2018-04-10T08:26:23.833Z,47.43
2018-04-10T08:28:51.341Z,47.60
2018-04-10T08:31:18.823Z,37.03
2018-04-10T08:33:46.280Z,43.90
2018-04-10T08:36:13.755Z,36.83
2018-04-10T08:38:41.245Z,37.37
2018-04-10T08:41:08.704Z,35.00
2018-04-10T08:43:36.166Z,34.60
2018-04-10T08:46:03.656Z,34.60
2018-04-10T08:48:31.115Z,35.10
2018-04-10T08:50:58.655Z,29.73
2018-04-10T08:53:26.160Z,28.77
2018-04-10T08:55:53.616Z,34.60
2018-04-10T08:58:21.083Z,34.77
2018-04-10T09:00:48.556Z,32.53
2018-04-10T09:03:16.013Z,29.70
2018-04-10T09:05:43.509Z,37.50
2018-04-10T09:08:10.982Z,30.00
2018-04-10T09:10:38.432Z,31.40
2018-04-10T09:13:06.027Z,33.00
2018-04-10T09:15:33.497Z,36.33
2018-04-10T09:18:00.957Z,40.87
2018-04-10T09:20:28.507Z,27.53
2018-04-10T09:22:56.057Z,45.57
2018-04-10T09:25:23.593Z,36.83
2018-04-10T09:27:51.088Z,25.80
2018-04-10T09:30:18.575Z,30.60
2018-04-10T09:32:46.061Z,32.90
2018-04-10T09:35:13.560Z,33.60
2018-04-10T09:37:41.020Z,27.30
2018-04-10T09:40:08.503Z,32.30
2018-04-10T09:42:35.984Z,34.03
2018-04-10T09:45:03.465Z,28.30
2018-04-10T09:47:30.965Z,32.23
2018-04-10T09:49:58.538Z,35.17
2018-04-10T09:52:26.013Z,29.10
2018-04-10T09:54:53.472Z,28.23
2018-04-10T09:57:21.044Z,30.30
2018-04-10T09:59:48.513Z,29.10
2018-04-10T10:02:15.968Z,33.00
2018-04-10T10:04:43.449Z,35.33
2018-04-10T10:07:12.849Z,27.37
2018-04-10T10:09:40.316Z,29.93
2018-04-10T10:12:07.808Z,24.80
2018-04-10T10:14:35.378Z,36.23
2018-04-10T10:17:02.840Z,28.53
2018-04-10T10:19:30.321Z,26.57
2018-04-10T10:21:57.772Z,32.30
2018-04-10T10:24:25.476Z,25.20
2018-04-10T10:26:52.975Z,33.83
2018-04-10T10:29:20.460Z,31.60
2018-04-10T10:31:47.948Z,37.67
2018-04-10T10:34:15.449Z,28.60
2018-04-10T10:36:42.947Z,23.63
2018-04-10T10:39:10.497Z,29.93
2018-04-10T10:41:38.065Z,32.87
2018-04-10T10:44:05.548Z,30.20
2018-04-10T10:46:33.030Z,33.00
2018-04-10T10:49:00.504Z,22.27
2018-04-10T10:51:27.983Z,28.90
2018-04-10T10:53:55.464Z,34.00
2018-04-10T10:56:22.933Z,29.37
2018-04-10T10:58:50.386Z,29.40
2018-04-10T11:01:17.874Z,17.23
2018-04-10T11:03:45.348Z,32.83
2018-04-10T11:06:12.844Z,20.10
2018-04-10T11:08:40.587Z,27.50
2018-04-10T11:11:08.165Z,21.57
2018-04-10T11:13:35.626Z,23.73
2018-04-10T11:16:03.155Z,23.50
2018-04-10T11:18:30.608Z,25.87
2018-04-10T11:20:58.111Z,30.00
2018-04-10T11:23:25.572Z,19.63
2018-04-10T11:25:53.028Z,40.63
2018-04-10T11:28:20.504Z,23.63
2018-04-10T11:30:48.130Z,23.30
2018-04-10T11:33:15.600Z,23.37
2018-04-10T11:35:43.080Z,22.60
2018-04-10T11:38:10.559Z,33.40
2018-04-10T11:40:38.028Z,26.30
2018-04-10T11:43:05.500Z,29.67
2018-04-10T11:45:33.008Z,24.93
2018-04-10T11:48:00.535Z,21.17
2018-04-10T11:50:28.041Z,26.67
2018-04-10T11:52:55.520Z,21.97
2018-04-10T11:55:22.982Z,29.33
2018-04-10T11:57:50.465Z,24.10
2018-04-10T12:00:17.956Z,23.10
2018-04-10T12:02:45.460Z,18.40
2018-04-10T12:05:12.938Z,28.27
2018-04-10T12:07:40.474Z,29.40
2018-04-10T12:10:07.948Z,31.00
2018-04-10T12:12:35.643Z,23.60
2018-04-10T12:15:03.134Z,27.83
2018-04-10T12:17:30.626Z,22.33
2018-04-10T12:19:58.092Z,25.13
2018-04-10T12:22:25.584Z,28.10
2018-04-10T12:24:53.056Z,22.40
2018-04-10T12:27:20.571Z,23.97
2018-04-10T12:29:48.075Z,23.53
2018-04-10T12:32:15.527Z,30.00
2018-04-10T12:34:42.991Z,14.47
2018-04-10T12:37:10.464Z,14.40
2018-04-10T12:39:38.005Z,13.07
2018-04-10T12:42:05.471Z,19.03
2018-04-10T12:44:32.960Z,19.23
2018-04-10T12:47:00.480Z,10.10
2018-04-10T12:49:27.946Z,16.40
2018-04-10T12:51:55.425Z,14.30
2018-04-10T12:54:22.882Z,16.23
2018-04-10T12:56:50.420Z,11.03
2018-04-10T12:59:17.927Z,11.77
2018-04-10T13:01:45.397Z,10.50
2018-04-10T13:04:12.849Z,20.43
2018-04-10T13:06:40.325Z,10.57
2018-04-10T13:09:07.828Z,11.57
2018-04-10T13:11:35.340Z,9.53
2018-04-10T13:14:02.884Z,11.30
2018-04-10T13:16:30.332Z,17.70
2018-04-10T13:18:57.827Z,15.83
2018-04-10T13:21:25.387Z,13.90
2018-04-10T13:23:52.851Z,16.23
2018-04-10T13:26:20.411Z,18.70
2018-04-10T13:28:47.880Z,16.10
2018-04-10T13:31:15.346Z,21.30
2018-04-10T13:33:42.921Z,14.00
2018-04-10T13:36:10.412Z,17.77
2018-04-10T13:38:37.868Z,22.80
2018-04-10T13:41:05.347Z,18.33
2018-04-10T13:43:32.848Z,19.40
2018-04-10T13:46:00.336Z,18.73
2018-04-10T13:48:27.791Z,15.30
2018-04-10T13:50:55.285Z,22.83
2018-04-10T13:53:22.872Z,20.07
2018-04-10T13:55:50.363Z,30.73
2018-04-10T13:58:17.956Z,24.77
2018-04-10T14:00:45.432Z,21.43
2018-04-10T14:03:12.947Z,28.83
2018-04-10T14:05:40.460Z,21.20
2018-04-10T14:08:07.936Z,22.00
2018-04-10T14:10:35.416Z,22.17
2018-04-10T14:13:03.062Z,24.40
2018-04-10T14:15:30.535Z,14.80
2018-04-10T14:17:58.703Z,20.50
2018-04-10T14:20:26.176Z,22.43
2018-04-10T14:22:53.688Z,24.30
2018-04-10T14:25:21.184Z,22.13
2018-04-10T14:27:48.643Z,19.60
2018-04-10T14:30:16.111Z,21.53
2018-04-10T14:32:43.636Z,20.73
2018-04-10T14:35:11.117Z,18.37
2018-04-10T14:37:38.573Z,23.50
2018-04-10T14:40:06.052Z,20.03
2018-04-10T14:42:33.522Z,32.40
2018-04-10T14:45:01.027Z,19.13
2018-04-10T14:47:28.598Z,15.87
2018-04-10T14:49:56.130Z,19.23
2018-04-10T14:52:23.593Z,22.53
2018-04-10T14:54:51.159Z,18.33
2018-04-10T14:57:18.619Z,16.30
2018-04-10T14:59:46.083Z,17.40
2018-04-10T15:02:13.640Z,16.63
2018-04-10T15:04:41.136Z,15.23
2018-04-10T15:07:08.604Z,19.50
2018-04-10T15:09:36.060Z,17.90
2018-04-10T15:12:03.588Z,21.50
2018-04-10T15:14:31.073Z,15.77
2018-04-10T15:16:58.565Z,20.23
2018-04-10T15:19:26.050Z,18.33
2018-04-10T15:21:53.528Z,18.03
2018-04-10T15:24:21.005Z,13.63
2018-04-10T15:26:48.469Z,13.27
2018-04-10T15:29:15.992Z,17.77
2018-04-10T15:31:43.576Z,16.30
2018-04-10T15:34:11.032Z,19.30
2018-04-10T15:36:38.488Z,15.07
2018-04-10T15:39:06.937Z,16.93
2018-04-10T15:41:34.396Z,11.27
2018-04-10T15:44:01.941Z,21.03
2018-04-10T15:46:29.436Z,14.80
2018-04-10T15:48:56.887Z,15.40
2018-04-10T15:51:24.339Z,18.00
2018-04-10T15:53:51.824Z,17.63
2018-04-10T15:56:19.284Z,16.40
2018-04-10T15:58:46.840Z,12.73
2018-04-10T16:01:14.346Z,12.43
2018-04-10T16:03:41.800Z,22.00
2018-04-10T16:06:09.258Z,22.67
2018-04-10T16:08:36.732Z,21.73
2018-04-10T16:11:04.194Z,10.30
2018-04-10T16:13:31.648Z,14.50
2018-04-10T16:15:59.133Z,12.63
2018-04-10T16:18:26.594Z,19.33
2018-04-10T16:20:54.054Z,12.67
2018-04-10T16:23:21.541Z,16.90
2018-04-10T16:25:49.004Z,10.93
2018-04-10T16:28:16.458Z,12.43
2018-04-10T16:30:43.944Z,19.23
2018-04-10T16:33:11.481Z,8.53
2018-04-10T16:35:38.950Z,8.80
2018-04-10T16:38:06.436Z,9.90
2018-04-10T16:40:33.925Z,9.40
2018-04-10T16:43:01.427Z,10.57
2018-04-10T16:45:28.949Z,12.33
2018-04-10T16:47:56.442Z,7.43
2018-04-10T16:50:24.114Z,9.73
2018-04-10T16:52:51.622Z,13.53
2018-04-10T16:55:19.100Z,15.33
2018-04-10T16:57:46.633Z,10.67
2018-04-10T17:00:14.075Z,5.50
2018-04-10T17:02:41.548Z,5.07
2018-04-10T17:05:09.004Z,7.60
2018-04-10T17:07:36.471Z,14.00
2018-04-10T17:10:03.976Z,17.77
2018-04-10T17:12:31.485Z,12.63
2018-04-10T17:14:58.903Z,13.33
2018-04-10T17:17:26.411Z,21.33
2018-04-10T17:19:53.865Z,9.70
2018-04-10T17:22:21.423Z,6.50
2018-04-10T17:24:48.936Z,8.47
2018-04-10T17:27:16.425Z,19.10
2018-04-10T17:29:43.897Z,6.33
2018-04-10T17:32:11.394Z,11.13
2018-04-10T17:34:38.851Z,30.70
2018-04-10T17:37:06.396Z,12.20
2018-04-10T17:39:33.937Z,5.27
2018-04-10T17:42:01.407Z,36.67
2018-04-10T17:44:28.868Z,15.93
2018-04-10T17:46:56.347Z,16.40
2018-04-10T17:49:23.806Z,16.37
2018-04-10T17:51:51.307Z,15.83
2018-04-10T17:54:18.868Z,9.20
2018-04-10T17:56:46.311Z,13.40
2018-04-10T17:59:13.768Z,18.27
2018-04-10T18:01:41.255Z,9.00
2018-04-10T18:04:08.707Z,13.27
2018-04-10T18:06:36.175Z,25.33
2018-04-10T18:09:03.649Z,8.77
2018-04-10T18:11:31.129Z,10.30
2018-04-10T18:13:58.625Z,19.57
2018-04-10T18:16:26.197Z,15.30
2018-04-10T18:18:53.681Z,10.33
2018-04-10T18:21:21.160Z,9.37
2018-04-10T18:23:48.663Z,9.07
2018-04-10T18:26:16.129Z,16.87
2018-04-10T18:28:43.603Z,14.77
2018-04-10T18:31:11.134Z,19.60
2018-04-10T18:33:38.589Z,16.53
2018-04-10T18:36:06.095Z,9.70
2018-04-10T18:38:33.582Z,18.50
2018-04-10T18:41:01.067Z,11.43
2018-04-10T18:43:28.538Z,9.27
2018-04-10T18:45:56.024Z,15.07
2018-04-10T18:48:23.561Z,18.20
2018-04-10T18:50:51.037Z,11.90
2018-04-10T18:53:18.557Z,16.43
2018-04-10T18:55:46.040Z,17.83
2018-04-10T18:58:13.556Z,15.70
2018-04-10T19:00:40.997Z,11.53
2018-04-10T19:03:08.483Z,13.13
2018-04-10T19:05:35.992Z,19.50
2018-04-10T19:08:03.462Z,19.70
2018-04-10T19:10:30.964Z,23.87
2018-04-10T19:12:58.436Z,21.83
2018-04-10T19:15:25.893Z,25.37
2018-04-10T19:17:53.424Z,26.53
2018-04-10T19:20:20.932Z,23.60
2018-04-10T19:22:48.726Z,24.83
2018-04-10T19:25:16.260Z,29.37
2018-04-10T19:27:43.736Z,28.10
2018-04-10T19:30:11.208Z,24.73
2018-04-10T19:32:38.749Z,24.10
2018-04-10T19:35:06.310Z,22.00
2018-04-10T19:37:33.868Z,38.00
2018-04-10T19:40:01.396Z,26.53
2018-04-10T19:42:28.868Z,28.50
2018-04-10T19:44:56.550Z,26.70
2018-04-10T19:47:24.108Z,26.80
2018-04-10T19:49:51.581Z,33.63
2018-04-10T19:52:19.096Z,31.53
2018-04-10T19:54:46.614Z,39.33
2018-04-10T19:57:14.134Z,31.17
2018-04-10T19:59:41.604Z,30.87
2018-04-10T20:02:09.225Z,23.83
2018-04-10T20:04:36.787Z,22.60
2018-04-10T20:07:04.493Z,25.17
2018-04-10T20:09:32.090Z,33.47
2018-04-10T20:11:59.564Z,30.40
2018-04-10T20:14:27.147Z,36.70
2018-04-10T20:16:54.727Z,29.77
2018-04-10T20:19:22.195Z,23.90
2018-04-10T20:21:49.717Z,30.03
2018-04-10T20:24:17.207Z,30.20
2018-04-10T20:26:44.760Z,33.93
2018-04-10T20:29:12.224Z,25.20
2018-04-10T20:31:39.720Z,26.30
2018-04-10T20:34:07.196Z,31.67
2018-04-10T20:36:34.813Z,30.73
2018-04-10T20:39:02.304Z,27.10
2018-04-10T20:41:29.768Z,32.23
2018-04-10T20:43:57.317Z,29.10
2018-04-10T20:46:24.997Z,23.57
2018-04-10T20:48:52.470Z,28.70
2018-04-10T20:51:19.933Z,28.90
2018-04-10T20:53:47.473Z,25.03
2018-04-10T20:56:14.933Z,31.03
2018-04-10T20:58:42.392Z,29.83
2018-04-10T21:01:09.932Z,32.00
2018-04-10T21:03:37.408Z,29.80
2018-04-10T21:06:04.860Z,28.63
2018-04-10T21:08:32.361Z,26.50
2018-04-10T21:10:59.820Z,26.37
2018-04-10T21:13:27.312Z,37.50
2018-04-10T21:15:54.792Z,28.77
2018-04-10T21:18:22.248Z,30.60
2018-04-10T21:20:49.836Z,26.23
2018-04-10T21:23:17.323Z,32.87
2018-04-10T21:25:44.831Z,26.47
2018-04-10T21:28:12.266Z,27.67
2018-04-10T21:30:39.759Z,32.03
2018-04-10T21:33:07.216Z,35.40
2018-04-10T21:35:34.680Z,36.40
2018-04-10T21:38:02.170Z,35.70
2018-04-10T21:40:29.632Z,33.20
2018-04-10T21:43:02.839Z,33.57
2018-04-10T21:45:30.320Z,27.30
2018-04-10T21:47:57.810Z,28.57
2018-04-10T21:50:25.308Z,30.47
2018-04-10T21:52:52.768Z,32.13
2018-04-10T21:55:20.232Z,29.00
2018-04-10T21:57:47.716Z,30.30
2018-04-10T22:00:15.189Z,30.30
2018-04-10T22:02:42.668Z,28.37
2018-04-10T22:05:10.155Z,42.90
2018-04-10T22:07:37.627Z,31.17
2018-04-10T22:10:05.089Z,31.37
2018-04-10T22:12:32.589Z,34.23
2018-04-10T22:15:00.055Z,32.47
2018-04-10T22:17:27.561Z,28.40
2018-04-10T22:19:55.056Z,30.27
2018-04-10T22:22:22.540Z,28.13
2018-04-10T22:24:50.032Z,36.03
2018-04-10T22:27:17.692Z,37.60
2018-04-10T22:29:45.313Z,36.03
2018-04-10T22:32:12.836Z,42.03
2018-04-10T22:34:40.365Z,26.00
2018-04-10T22:37:07.869Z,30.13
2018-04-10T22:39:35.340Z,31.77
2018-04-10T22:42:02.816Z,29.73
2018-04-10T22:44:30.297Z,31.73
2018-04-10T22:46:57.833Z,32.53
2018-04-10T22:49:25.298Z,25.63
2018-04-10T22:51:52.762Z,31.80
2018-04-10T22:54:25.180Z,36.87
2018-04-10T22:56:52.693Z,23.77
2018-04-10T22:59:20.159Z,31.73
2018-04-10T23:01:47.649Z,31.50
2018-04-10T23:04:15.112Z,30.13
2018-04-10T23:06:42.582Z,28.23
2018-04-10T23:09:10.077Z,34.10
2018-04-10T23:11:37.555Z,27.33
2018-04-10T23:14:05.055Z,25.23
2018-04-10T23:16:32.544Z,27.40
2018-04-10T23:19:00.032Z,25.93
2018-04-10T23:21:27.511Z,22.07
2018-04-10T23:23:55.006Z,39.53
2018-04-10T23:26:22.464Z,28.13
2018-04-10T23:28:49.937Z,29.63
2018-04-10T23:31:17.423Z,25.37
2018-04-10T23:33:44.893Z,26.73
2018-04-10T23:36:12.453Z,26.77
2018-04-10T23:38:39.956Z,23.37
2018-04-10T23:41:07.440Z,23.83
2018-04-10T23:43:34.905Z,29.93
2018-04-10T23:46:02.390Z,31.27
2018-04-10T23:48:29.855Z,29.90
2018-04-10T23:50:57.305Z,18.80
2018-04-10T23:53:24.784Z,28.53
2018-04-10T23:55:52.243Z,22.47
2018-04-10T23:58:19.708Z,30.60
